createdAt,value
2023-03-02T00:01:12.472Z,95497.16
2023-03-02T00:03:42.701Z,95493.75
2023-03-02T00:06:11.180Z,95493.19
2023-03-02T00:08:39.805Z,95490.44
2023-03-02T00:11:07.957Z,95497.44
2023-03-02T00:13:38.071Z,95498.13
2023-03-02T00:16:06.797Z,95494.00
2023-03-02T00:18:34.386Z,95490.59
2023-03-02T00:21:03.634Z,95487.03
2023-03-02T00:23:31.228Z,95487.44
2023-03-02T00:25:59.332Z,95493.59
2023-03-02T00:28:27.295Z,95493.88
2023-03-02T00:30:55.630Z,95498.13
2023-03-02T00:33:23.803Z,95493.59
2023-03-02T00:35:51.775Z,95489.13
2023-03-02T00:38:20.687Z,95491.28
2023-03-02T00:40:49.841Z,95491.97
2023-03-02T00:43:18.622Z,95484.16
2023-03-02T00:45:46.717Z,95495.78
2023-03-02T00:48:14.261Z,95492.50
2023-03-02T00:50:42.126Z,95492.50
2023-03-02T00:53:09.949Z,95485.41
2023-03-02T00:55:39.233Z,95486.34
2023-03-02T00:58:07.108Z,95485.06
2023-03-02T01:00:35.591Z,95481.66
2023-03-02T01:03:06.837Z,95480.44
2023-03-02T01:05:37.653Z,95478.94
2023-03-02T01:08:05.726Z,95473.59
2023-03-02T01:10:33.868Z,95471.72
2023-03-02T01:13:03.330Z,95464.47
2023-03-02T01:15:30.917Z,95471.44
2023-03-02T01:17:59.978Z,95457.94
2023-03-02T01:20:27.729Z,95463.84
2023-03-02T01:22:56.456Z,95464.00
2023-03-02T01:25:24.468Z,95462.78
2023-03-02T01:27:52.323Z,95452.38
2023-03-02T01:30:21.402Z,95445.03
2023-03-02T01:32:49.483Z,95441.97
2023-03-02T01:35:17.330Z,95440.06
2023-03-02T01:37:45.602Z,95432.28
2023-03-02T01:40:15.180Z,95434.88
2023-03-02T01:42:48.239Z,95428.03
2023-03-02T01:45:53.363Z,95443.63
2023-03-02T01:48:33.192Z,95438.56
2023-03-02T01:51:01.685Z,95431.19
2023-03-02T01:53:32.896Z,95423.09
2023-03-02T01:56:03.504Z,95427.34
2023-03-02T01:58:34.942Z,95425.44
2023-03-02T02:01:05.133Z,95426.38
2023-03-02T02:03:33.221Z,95433.00
2023-03-02T02:06:10.238Z,95433.41
2023-03-02T02:08:40.097Z,95433.56
2023-03-02T02:11:07.858Z,95437.53
2023-03-02T02:13:36.053Z,95445.06
2023-03-02T02:16:05.819Z,95443.44
2023-03-02T02:18:35.015Z,95437.13
2023-03-02T02:21:03.114Z,95443.16
2023-03-02T02:23:37.096Z,95434.13
2023-03-02T02:26:13.783Z,95434.56
2023-03-02T02:28:48.540Z,95416.34
2023-03-02T02:31:22.397Z,95424.84
2023-03-02T02:33:54.564Z,95426.34
2023-03-02T02:36:26.617Z,95412.50
2023-03-02T02:38:57.597Z,95407.22
2023-03-02T02:41:30.368Z,95410.63
2023-03-02T02:43:58.522Z,95408.72
2023-03-02T02:46:27.590Z,95407.06
2023-03-02T02:48:57.502Z,95413.91
2023-03-02T02:51:29.737Z,95407.31
2023-03-02T02:54:00.378Z,95396.09
2023-03-02T02:56:39.633Z,95400.47
2023-03-02T02:59:17.379Z,95392.00
2023-03-02T03:01:47.021Z,95387.06
2023-03-02T03:04:18.991Z,95392.28
2023-03-02T03:06:52.619Z,95385.44
2023-03-02T03:09:21.119Z,95389.00
2023-03-02T03:11:53.608Z,95397.19
2023-03-02T03:14:26.732Z,95385.16
2023-03-02T03:16:55.325Z,95388.19
2023-03-02T03:19:25.626Z,95397.19
2023-03-02T03:21:56.635Z,95384.63
2023-03-02T03:24:26.883Z,95393.78
2023-03-02T03:26:56.845Z,95387.47
2023-03-02T03:29:26.944Z,95383.00
2023-03-02T03:32:00.539Z,95390.66
2023-03-02T03:34:31.397Z,95383.81
2023-03-02T03:37:01.753Z,95384.78
2023-03-02T03:39:32.647Z,95394.22
2023-03-02T03:42:02.048Z,95381.31
2023-03-02T03:44:30.570Z,95383.81
2023-03-02T03:46:58.720Z,95387.38
2023-03-02T03:49:27.798Z,95396.09
2023-03-02T03:51:56.260Z,95398.44
2023-03-02T03:54:24.679Z,95393.13
2023-03-02T03:56:52.306Z,95392.81
2023-03-02T03:59:23.851Z,95396.00
2023-03-02T04:01:57.552Z,95396.25
2023-03-02T04:04:30.794Z,95401.88
2023-03-02T04:06:59.329Z,95400.25
2023-03-02T04:09:27.886Z,95392.16
2023-03-02T04:11:57.115Z,95399.56
2023-03-02T04:14:27.445Z,95394.47
2023-03-02T04:16:57.251Z,95394.75
2023-03-02T04:19:26.539Z,95389.84
2023-03-02T04:21:58.480Z,95395.56
2023-03-02T04:24:27.849Z,95388.88
2023-03-02T04:26:57.672Z,95390.50
2023-03-02T04:29:27.608Z,95382.44
2023-03-02T04:31:55.455Z,95392.81
2023-03-02T04:34:26.775Z,95386.00
2023-03-02T04:36:55.909Z,95391.63
2023-03-02T04:39:24.987Z,95390.66
2023-03-02T04:41:54.286Z,95393.13
2023-03-02T04:44:21.949Z,95399.41
2023-03-02T04:46:51.860Z,95402.97
2023-03-02T04:49:21.608Z,95388.34
2023-03-02T04:51:50.437Z,95389.00
2023-03-02T04:54:20.562Z,95390.22
2023-03-02T04:56:49.350Z,95392.56
2023-03-02T04:59:17.570Z,95390.38
2023-03-02T05:01:45.469Z,95389.25
2023-03-02T05:04:14.964Z,95388.06
2023-03-02T05:06:42.962Z,95389.25
2023-03-02T05:09:10.662Z,95393.78
2023-03-02T05:11:38.706Z,95393.94
2023-03-02T05:14:08.849Z,95387.63
2023-03-02T05:16:39.507Z,95381.06
2023-03-02T05:19:09.358Z,95389.56
2023-03-02T05:21:38.377Z,95403.22
2023-03-02T05:24:06.694Z,95398.03
2023-03-02T05:26:34.653Z,95405.16
2023-03-02T05:29:02.410Z,95400.50
2023-03-02T05:31:34.853Z,95384.06
2023-03-02T05:34:02.791Z,95388.19
2023-03-02T05:36:31.127Z,95389.00
2023-03-02T05:39:00.140Z,95383.81
2023-03-02T05:41:28.148Z,95390.66
2023-03-02T05:43:55.776Z,95384.63
2023-03-02T05:46:23.976Z,95382.72
2023-03-02T05:48:51.810Z,95390.38
2023-03-02T05:51:20.050Z,95393.25
2023-03-02T05:53:48.199Z,95394.22
2023-03-02T05:56:17.732Z,95397.78
2023-03-02T05:58:45.275Z,95396.81
2023-03-02T06:01:15.398Z,95398.31
2023-03-02T06:03:43.359Z,95395.56
2023-03-02T06:06:13.842Z,95404.34
2023-03-02T06:08:41.950Z,95401.44
2023-03-02T06:11:11.130Z,95405.72
2023-03-02T06:13:40.933Z,95415.28
2023-03-02T06:16:09.399Z,95406.53
2023-03-02T06:18:40.940Z,95416.66
2023-03-02T06:21:09.410Z,95416.13
2023-03-02T06:23:37.009Z,95418.75
2023-03-02T06:26:10.973Z,95412.16
2023-03-02T06:28:51.994Z,95418.31
2023-03-02T06:31:21.076Z,95418.59
2023-03-02T06:33:49.937Z,95416.94
2023-03-02T06:36:18.303Z,95417.34
2023-03-02T06:38:45.962Z,95419.13
2023-03-02T06:41:13.969Z,95423.22
2023-03-02T06:43:43.209Z,95425.44
2023-03-02T06:46:12.711Z,95418.44
2023-03-02T06:48:40.319Z,95423.94
2023-03-02T06:51:08.612Z,95417.75
2023-03-02T06:53:36.317Z,95417.31
2023-03-02T06:56:04.651Z,95421.03
2023-03-02T06:58:32.825Z,95417.72
2023-03-02T07:01:01.778Z,95424.56
2023-03-02T07:03:30.229Z,95425.94
2023-03-02T07:05:57.846Z,95425.19
2023-03-02T07:08:25.782Z,95431.34
2023-03-02T07:10:53.336Z,95436.00
2023-03-02T07:13:21.241Z,95439.03
2023-03-02T07:15:48.935Z,95434.34
2023-03-02T07:18:18.905Z,95439.97
2023-03-02T07:20:46.458Z,95446.13
2023-03-02T07:23:14.582Z,95446.59
2023-03-02T07:25:42.611Z,95435.72
2023-03-02T07:28:10.537Z,95444.25
2023-03-02T07:30:38.126Z,95445.59
2023-03-02T07:33:05.813Z,95457.09
2023-03-02T07:35:34.766Z,95453.78
2023-03-02T07:38:03.371Z,95447.44
2023-03-02T07:40:30.894Z,95449.75
2023-03-02T07:42:58.623Z,95456.34
2023-03-02T07:45:26.609Z,95445.88
2023-03-02T07:47:54.512Z,95452.03
2023-03-02T07:50:22.073Z,95456.06
2023-03-02T07:52:51.307Z,95453.56
2023-03-02T07:55:18.905Z,95455.59
2023-03-02T07:57:46.513Z,95455.13
2023-03-02T08:00:15.415Z,95465.81
2023-03-02T08:02:43.826Z,95456.72
2023-03-02T08:05:12.393Z,95455.47
2023-03-02T08:07:41.135Z,95460.78
2023-03-02T08:10:12.116Z,95462.13
2023-03-02T08:12:39.839Z,95466.47
2023-03-02T08:15:09.570Z,95465.88
2023-03-02T08:17:37.432Z,95473.78
2023-03-02T08:20:06.306Z,95469.59
2023-03-02T08:22:34.185Z,95477.66
2023-03-02T08:25:01.772Z,95480.78
2023-03-02T08:27:30.862Z,95475.56
2023-03-02T08:29:58.406Z,95485.41
2023-03-02T08:32:26.300Z,95480.25
2023-03-02T08:34:54.802Z,95479.88
2023-03-02T08:37:22.367Z,95482.63
2023-03-02T08:39:50.551Z,95481.31
2023-03-02T08:42:18.176Z,95481.31
2023-03-02T08:44:47.479Z,95478.13
2023-03-02T08:47:15.062Z,95476.75
2023-03-02T08:49:42.922Z,95488.09
2023-03-02T08:52:10.564Z,95477.13
2023-03-02T08:54:40.589Z,95479.28
2023-03-02T08:57:11.742Z,95471.00
2023-03-02T08:59:39.786Z,95476.13
2023-03-02T09:02:11.248Z,95470.88
2023-03-02T09:04:39.356Z,95467.75
2023-03-02T09:07:07.010Z,95465.50
2023-03-02T09:09:35.318Z,95467.78
2023-03-02T09:12:03.367Z,95470.44
2023-03-02T09:14:31.273Z,95472.41
2023-03-02T09:16:58.918Z,95468.84
2023-03-02T09:19:27.888Z,95479.69
2023-03-02T09:21:55.456Z,95480.72
2023-03-02T09:24:23.665Z,95480.88
2023-03-02T09:26:51.236Z,95472.88
2023-03-02T09:29:19.052Z,95478.16
2023-03-02T09:31:46.709Z,95477.22
2023-03-02T09:34:14.617Z,95486.09
2023-03-02T09:36:43.512Z,95481.22
2023-03-02T09:39:12.717Z,95481.91
2023-03-02T09:42:08.833Z,95481.72
2023-03-02T09:45:04.812Z,95478.94
2023-03-02T09:47:39.155Z,95482.88
2023-03-02T09:50:27.986Z,95478.94
2023-03-02T09:53:16.617Z,95478.44
2023-03-02T09:55:48.546Z,95488.13
2023-03-02T09:58:20.270Z,95482.22
2023-03-02T10:00:49.232Z,95487.47
2023-03-02T10:03:19.911Z,95492.72
2023-03-02T10:05:50.378Z,95485.50
2023-03-02T10:08:23.126Z,95497.59
2023-03-02T10:10:58.046Z,95494.34
2023-03-02T10:13:30.092Z,95492.88
2023-03-02T10:16:11.483Z,95492.06
2023-03-02T10:18:44.760Z,95495.00
2023-03-02T10:21:21.475Z,95497.09
2023-03-02T10:23:57.644Z,95495.28
2023-03-02T10:26:38.416Z,95491.38
2023-03-02T10:29:24.207Z,95493.00
2023-03-02T10:32:00.237Z,95498.25
2023-03-02T10:34:31.508Z,95507.44
2023-03-02T10:36:59.574Z,95509.38
2023-03-02T10:39:29.175Z,95505.38
2023-03-02T10:42:03.891Z,95501.50
2023-03-02T10:44:37.583Z,95504.94
2023-03-02T10:47:05.709Z,95504.47
2023-03-02T10:49:35.087Z,95502.03
2023-03-02T10:52:05.492Z,95502.97
2023-03-02T10:54:37.092Z,95497.22
2023-03-02T10:57:19.879Z,95500.69
2023-03-02T10:59:49.111Z,95503.16
2023-03-02T11:02:23.100Z,95494.88
2023-03-02T11:04:57.453Z,95489.81
2023-03-02T11:07:27.581Z,95487.44
2023-03-02T11:10:05.715Z,95487.19
2023-03-02T11:12:36.371Z,95479.69
2023-03-02T11:15:20.506Z,95487.84
2023-03-02T11:17:51.158Z,95495.00
2023-03-02T11:20:26.817Z,95487.78
2023-03-02T11:23:02.542Z,95478.41
2023-03-02T11:25:36.850Z,95482.13
2023-03-02T11:28:11.950Z,95484.88
2023-03-02T11:30:46.797Z,95481.47
2023-03-02T11:33:21.436Z,95480.03
2023-03-02T11:35:54.786Z,95472.38
2023-03-02T11:38:26.572Z,95474.00
2023-03-02T11:40:59.785Z,95471.16
2023-03-02T11:43:27.510Z,95469.75
2023-03-02T11:45:59.644Z,95472.38
2023-03-02T11:48:32.544Z,95471.34
2023-03-02T11:51:04.206Z,95467.88
2023-03-02T11:53:40.223Z,95469.50
2023-03-02T11:56:09.923Z,95472.59
2023-03-02T11:58:39.440Z,95464.25
2023-03-02T12:01:13.356Z,95465.47
2023-03-02T12:03:42.553Z,95453.16
2023-03-02T12:06:28.045Z,95447.88
2023-03-02T12:09:07.864Z,95456.72
2023-03-02T12:11:41.338Z,95454.34
2023-03-02T12:14:28.531Z,95458.28
2023-03-02T12:17:07.345Z,95455.03
2023-03-02T12:19:42.551Z,95457.91
2023-03-02T12:22:13.825Z,95453.28
2023-03-02T12:24:44.463Z,95449.59
2023-03-02T12:27:27.513Z,95446.31
2023-03-02T12:30:09.257Z,95454.03
2023-03-02T12:32:38.389Z,95454.59
2023-03-02T12:35:13.904Z,95448.72
2023-03-02T12:37:48.333Z,95451.19
2023-03-02T12:40:32.672Z,95448.75
2023-03-02T12:43:27.617Z,95439.78
2023-03-02T12:46:13.713Z,95451.28
2023-03-02T12:48:45.888Z,95446.44
2023-03-02T12:51:19.400Z,95437.78
2023-03-02T12:53:47.157Z,95438.91
2023-03-02T12:56:23.328Z,95447.75
2023-03-02T12:58:55.250Z,95435.94
2023-03-02T13:01:27.059Z,95443.66
2023-03-02T13:03:55.809Z,95444.81
2023-03-02T13:06:26.954Z,95440.16
2023-03-02T13:08:57.875Z,95445.28
2023-03-02T13:11:31.380Z,95444.28
2023-03-02T13:14:03.620Z,95446.91
2023-03-02T13:16:34.779Z,95443.81
2023-03-02T13:19:04.061Z,95442.84
2023-03-02T13:21:34.834Z,95444.72
2023-03-02T13:24:02.853Z,95431.28
2023-03-02T13:26:33.341Z,95437.72
2023-03-02T13:29:05.480Z,95442.47
2023-03-02T13:31:34.361Z,95438.84
2023-03-02T13:34:02.780Z,95440.13
2023-03-02T13:36:36.268Z,95441.34
2023-03-02T13:39:07.268Z,95435.34
2023-03-02T13:41:37.145Z,95440.56
2023-03-02T13:44:20.747Z,95434.88
2023-03-02T13:46:48.805Z,95443.69
2023-03-02T13:49:27.983Z,95434.97
2023-03-02T13:52:02.055Z,95436.88
2023-03-02T13:54:32.399Z,95436.06
2023-03-02T13:57:03.522Z,95444.41
2023-03-02T13:59:33.029Z,95439.13
2023-03-02T14:02:01.163Z,95432.41
2023-03-02T14:04:29.267Z,95435.34
2023-03-02T14:06:57.360Z,95439.03
2023-03-02T14:09:27.578Z,95429.44
2023-03-02T14:11:56.957Z,95430.22
2023-03-02T14:14:28.011Z,95427.19
2023-03-02T14:16:57.350Z,95430.13
2023-03-02T14:19:25.139Z,95424.94
2023-03-02T14:21:52.772Z,95432.47
2023-03-02T14:24:21.020Z,95434.09
2023-03-02T14:26:49.806Z,95433.31
2023-03-02T14:29:23.392Z,95427.22
2023-03-02T14:31:51.070Z,95434.53
2023-03-02T14:34:20.447Z,95429.03
2023-03-02T14:36:50.880Z,95426.88
2023-03-02T14:39:23.249Z,95425.81
2023-03-02T14:41:54.278Z,95418.53
2023-03-02T14:44:23.511Z,95421.94
2023-03-02T14:46:51.331Z,95420.22
2023-03-02T14:49:20.322Z,95421.88
2023-03-02T14:51:55.205Z,95419.09
2023-03-02T14:54:23.268Z,95422.22
2023-03-02T14:56:50.874Z,95411.75
2023-03-02T14:59:18.702Z,95415.16
2023-03-02T15:01:46.395Z,95422.44
2023-03-02T15:04:14.335Z,95424.78
2023-03-02T15:06:44.321Z,95427.03
2023-03-02T15:09:12.377Z,95433.69
2023-03-02T15:11:40.014Z,95431.03
2023-03-02T15:14:08.370Z,95432.81
2023-03-02T15:16:36.679Z,95432.56
2023-03-02T15:19:04.527Z,95432.88
2023-03-02T15:21:32.891Z,95435.63
2023-03-02T15:24:02.248Z,95441.97
2023-03-02T15:26:29.824Z,95437.56
2023-03-02T15:28:57.875Z,95436.25
2023-03-02T15:31:27.538Z,95441.09
2023-03-02T15:33:56.456Z,95442.47
2023-03-02T15:36:24.139Z,95438.31
2023-03-02T15:38:52.064Z,95443.94
2023-03-02T15:41:21.577Z,95440.31
2023-03-02T15:43:51.107Z,95430.53
2023-03-02T15:46:18.801Z,95441.06
2023-03-02T15:48:46.614Z,95447.50
2023-03-02T15:51:14.428Z,95452.47
2023-03-02T15:53:42.491Z,95440.75
2023-03-02T15:56:13.716Z,95445.59
2023-03-02T15:58:46.544Z,95452.47
2023-03-02T16:01:15.756Z,95451.53
2023-03-02T16:03:45.295Z,95456.78
2023-03-02T16:06:13.399Z,95453.28
2023-03-02T16:08:41.776Z,95459.91
2023-03-02T16:11:11.278Z,95452.81
2023-03-02T16:13:39.301Z,95458.09
2023-03-02T16:16:10.702Z,95454.47
2023-03-02T16:18:38.308Z,95458.44
2023-03-02T16:21:07.174Z,95456.00
2023-03-02T16:23:34.766Z,95461.84
2023-03-02T16:26:08.769Z,95464.16
2023-03-02T16:28:36.836Z,95476.97
2023-03-02T16:31:06.528Z,95468.47
2023-03-02T16:33:35.748Z,95482.19
2023-03-02T16:36:04.580Z,95481.63
2023-03-02T16:38:32.238Z,95484.31
2023-03-02T16:41:00.098Z,95492.81
2023-03-02T16:43:29.104Z,95493.72
2023-03-02T16:45:57.037Z,95498.00
2023-03-02T16:48:24.625Z,95498.69
2023-03-02T16:50:57.215Z,95504.63
2023-03-02T16:53:25.003Z,95504.66
2023-03-02T16:55:52.659Z,95503.44
2023-03-02T16:58:20.834Z,95505.41
2023-03-02T17:00:49.247Z,95513.09
2023-03-02T17:03:17.278Z,95518.53
2023-03-02T17:05:45.414Z,95512.59
2023-03-02T17:08:16.294Z,95514.13
2023-03-02T17:10:45.233Z,95517.09
2023-03-02T17:13:15.453Z,95518.25
2023-03-02T17:15:43.938Z,95527.28
2023-03-02T17:18:11.638Z,95521.09
2023-03-02T17:20:39.712Z,95524.66
2023-03-02T17:23:07.365Z,95534.31
2023-03-02T17:25:36.450Z,95525.22
2023-03-02T17:28:04.114Z,95525.53
2023-03-02T17:30:31.925Z,95535.44
2023-03-02T17:32:59.516Z,95537.84
2023-03-02T17:35:27.136Z,95537.59
2023-03-02T17:37:54.740Z,95544.09
2023-03-02T17:40:23.528Z,95548.09
2023-03-02T17:42:55.316Z,95545.91
2023-03-02T17:45:26.942Z,95549.50
2023-03-02T17:47:56.606Z,95549.53
2023-03-02T17:50:25.796Z,95550.94
2023-03-02T17:52:54.056Z,95550.94
2023-03-02T17:55:22.029Z,95558.34
2023-03-02T17:57:49.620Z,95558.34
2023-03-02T18:00:22.474Z,95565.19
2023-03-02T18:02:50.932Z,95572.34
2023-03-02T18:05:19.671Z,95568.38
2023-03-02T18:07:47.240Z,95575.34
2023-03-02T18:10:15.819Z,95576.44
2023-03-02T18:12:43.595Z,95573.69
2023-03-02T18:15:13.016Z,95566.31
2023-03-02T18:17:41.969Z,95575.91
2023-03-02T18:20:10.977Z,95575.75
2023-03-02T18:22:39.294Z,95578.72
2023-03-02T18:25:07.780Z,95587.09
2023-03-02T18:27:35.881Z,95576.94
2023-03-02T18:30:03.886Z,95577.91
2023-03-02T18:32:31.530Z,95585.56
2023-03-02T18:35:00.527Z,95582.72
2023-03-02T18:37:28.820Z,95582.72
2023-03-02T18:39:56.797Z,95587.63
2023-03-02T18:42:24.567Z,95582.28
2023-03-02T18:44:52.348Z,95581.59
2023-03-02T18:47:21.824Z,95585.69
2023-03-02T18:49:49.690Z,95577.22
2023-03-02T18:52:19.038Z,95584.34
2023-03-02T18:54:49.383Z,95587.13
2023-03-02T18:57:17.033Z,95591.47
2023-03-02T18:59:44.609Z,95583.75
2023-03-02T19:02:14.633Z,95594.59
2023-03-02T19:04:42.682Z,95598.31
2023-03-02T19:07:10.901Z,95588.44
2023-03-02T19:09:40.038Z,95599.31
2023-03-02T19:12:07.875Z,95602.84
2023-03-02T19:14:35.463Z,95598.97
2023-03-02T19:17:03.169Z,95613.56
2023-03-02T19:19:31.101Z,95608.34
2023-03-02T19:21:58.845Z,95609.03
2023-03-02T19:24:26.737Z,95618.22
2023-03-02T19:26:55.948Z,95616.56
2023-03-02T19:29:23.710Z,95612.44
2023-03-02T19:31:51.317Z,95620.91
2023-03-02T19:34:18.977Z,95625.59
2023-03-02T19:36:46.665Z,95626.44
2023-03-02T19:39:14.564Z,95626.13
2023-03-02T19:41:42.968Z,95634.38
2023-03-02T19:44:12.537Z,95633.81
2023-03-02T19:46:40.867Z,95635.75
2023-03-02T19:49:08.660Z,95625.34
2023-03-02T19:51:36.646Z,95631.22
2023-03-02T19:54:05.403Z,95634.28
2023-03-02T19:56:39.538Z,95628.13
2023-03-02T19:59:08.082Z,95633.22
2023-03-02T20:01:37.683Z,95638.50
2023-03-02T20:04:05.724Z,95634.94
2023-03-02T20:06:35.471Z,95638.19
2023-03-02T20:09:05.753Z,95636.28
2023-03-02T20:11:35.101Z,95630.81
2023-03-02T20:14:02.984Z,95642.31
2023-03-02T20:16:31.520Z,95640.75
2023-03-02T20:19:01.911Z,95648.38
2023-03-02T20:21:29.526Z,95637.06
2023-03-02T20:23:57.532Z,95638.72
2023-03-02T20:26:26.622Z,95642.66
2023-03-02T20:28:55.858Z,95650.00
2023-03-02T20:31:25.040Z,95642.78
2023-03-02T20:33:54.941Z,95650.06
2023-03-02T20:36:26.962Z,95653.16
2023-03-02T20:38:57.494Z,95654.97
2023-03-02T20:41:25.367Z,95643.66
2023-03-02T20:43:53.604Z,95646.91
2023-03-02T20:46:24.203Z,95640.75
2023-03-02T20:48:52.912Z,95644.13
2023-03-02T20:51:21.371Z,95646.56
2023-03-02T20:53:50.524Z,95646.22
2023-03-02T20:56:19.156Z,95651.84
2023-03-02T20:58:48.301Z,95652.19
2023-03-02T21:01:17.972Z,95654.03
2023-03-02T21:03:46.162Z,95650.28
2023-03-02T21:06:15.153Z,95657.09
2023-03-02T21:08:44.133Z,95648.06
2023-03-02T21:11:16.573Z,95651.34
2023-03-02T21:13:47.018Z,95649.47
2023-03-02T21:16:18.550Z,95645.34
2023-03-02T21:18:46.339Z,95649.59
2023-03-02T21:21:14.109Z,95648.19
2023-03-02T21:23:42.505Z,95646.16
2023-03-02T21:26:11.606Z,95645.50
2023-03-02T21:28:43.943Z,95650.88
2023-03-02T21:31:11.761Z,95642.44
2023-03-02T21:33:40.794Z,95645.19
2023-03-02T21:36:09.557Z,95643.03
2023-03-02T21:38:37.707Z,95641.84
2023-03-02T21:41:05.606Z,95635.28
2023-03-02T21:43:34.278Z,95628.97
2023-03-02T21:46:03.291Z,95632.81
2023-03-02T21:48:31.458Z,95640.25
2023-03-02T21:50:59.427Z,95640.50
2023-03-02T21:53:27.087Z,95636.00
2023-03-02T21:55:55.033Z,95638.59
2023-03-02T21:58:22.935Z,95636.00
2023-03-02T22:00:50.511Z,95648.06
2023-03-02T22:03:19.773Z,95640.31
2023-03-02T22:05:47.366Z,95637.88
2023-03-02T22:08:17.675Z,95634.88
2023-03-02T22:10:46.932Z,95631.00
2023-03-02T22:13:18.428Z,95629.13
2023-03-02T22:15:47.576Z,95633.66
2023-03-02T22:18:18.510Z,95633.22
2023-03-02T22:20:49.916Z,95636.94
2023-03-02T22:23:20.889Z,95632.28
2023-03-02T22:25:50.452Z,95642.66
2023-03-02T22:28:20.906Z,95636.06
2023-03-02T22:30:49.187Z,95640.84
2023-03-02T22:33:20.674Z,95631.94
2023-03-02T22:35:51.291Z,95642.66
2023-03-02T22:38:25.262Z,95638.16
2023-03-02T22:40:53.683Z,95639.81
2023-03-02T22:43:25.913Z,95642.31
2023-03-02T22:45:53.620Z,95638.75
2023-03-02T22:48:23.403Z,95638.81
2023-03-02T22:50:52.671Z,95629.00
2023-03-02T22:53:29.544Z,95639.66
2023-03-02T22:56:00.236Z,95635.66
2023-03-02T22:58:42.821Z,95633.56
2023-03-02T23:01:20.357Z,95638.75
2023-03-02T23:03:49.915Z,95643.53
2023-03-02T23:06:25.127Z,95640.00
2023-03-02T23:08:54.810Z,95643.28
2023-03-02T23:11:24.535Z,95636.75
2023-03-02T23:13:53.706Z,95634.31
2023-03-02T23:16:23.488Z,95640.47
2023-03-02T23:18:52.540Z,95640.91
2023-03-02T23:21:23.241Z,95633.28
2023-03-02T23:23:51.699Z,95634.72
2023-03-02T23:26:20.133Z,95629.91
2023-03-02T23:28:49.432Z,95635.28
2023-03-02T23:31:19.151Z,95639.81
2023-03-02T23:33:47.005Z,95635.97
2023-03-02T23:36:15.044Z,95638.06
2023-03-02T23:38:43.972Z,95643.25
2023-03-02T23:41:11.937Z,95637.53
2023-03-02T23:43:39.510Z,95640.56
2023-03-02T23:46:07.786Z,95635.63
2023-03-02T23:48:35.671Z,95642.19
2023-03-02T23:51:03.341Z,95637.28
2023-03-02T23:53:30.953Z,95640.03
2023-03-02T23:56:00.620Z,95635.09
2023-03-02T23:58:28.236Z,95643.47
